Lincoln, Idaho
Current Conditions -  °F | °C
As of 6:53 AM on Saturday 22 Nov 2014 (Local Time) from KIDA Reporting Station
Overcast Overcast  
Wind Chill: 23°   Ceiling: 1300
Heat Index: 35°   Visibility: 10mi
Dew Point: 33°   Wind: 23mph
Humidity: 92%   Direction: 200°SSW
Pressure: 29.75"   Gusts: NA
Location:  43.498°N, 111.73°W
Report Text: KIDA 221353Z 20020KT 10SM OVC013 02/01 A2975 RMK AO2 PK WND 20027/1341 UPB41E44SNE41 SLP088 P0002 T00170006
Loading
Personal Weather Stations






























Interactive Weather Map New forecast layout! Learn more

10-Day Weather Forecast

Advertisements
Track Severe Weather on mobile